Time;durP1;ratioP1;P1;durP2;ratioP2;P2;SDS_P1;SDS_P2;PMS_P1;PMS_P2;Temp;Humidity;BMP_temperature;BMP_pressure;BME280_temperature;BME280_humidity;BME280_pressure;Samples;Min_cycle;Max_cycle;Signal;HPM_P1;HPM_P2
2022/05/20 00:00:47;;;;;;;3.50;2.10;;;15.10;89.00;;;;;;5017691;28;20343;-91
2022/05/20 00:03:13;;;;;;;2.40;2.20;;;15.00;86.70;;;;;;5000314;28;20494;-91
2022/05/20 00:05:39;;;;;;;2.70;1.87;;;14.90;86.00;;;;;;5000616;28;21007;-91
2022/05/20 00:08:06;;;;;;;1.93;1.53;;;14.80;85.80;;;;;;5017873;28;20499;-91
2022/05/20 00:10:32;;;;;;;4.50;1.87;;;14.80;86.10;;;;;;5000310;28;20416;-91
2022/05/20 00:12:59;;;;;;;1.50;1.40;;;14.70;85.60;;;;;;5000127;28;20447;-91
2022/05/20 00:15:27;;;;;;;4.47;2.03;;;14.60;85.80;;;;;;5000183;28;20241;-91
2022/05/20 00:17:54;;;;;;;4.17;2.50;;;14.60;88.00;;;;;;5001405;28;20965;-91
2022/05/20 00:20:21;;;;;;;5.10;2.10;;;14.60;88.60;;;;;;5002035;28;20938;-90
2022/05/20 00:22:47;;;;;;;6.33;2.13;;;14.60;87.90;;;;;;5001689;28;20464;-91
2022/05/20 00:28:01;;;;;;;3.27;2.60;;;14.60;88.40;;;;;;4999895;28;20451;-91
2022/05/20 00:30:26;;;;;;;3.07;1.83;;;14.60;90.30;;;;;;4999823;28;20780;-90
2022/05/20 00:32:52;;;;;;;3.20;2.30;;;14.60;90.40;;;;;;4982450;28;20491;-91
2022/05/20 00:35:20;;;;;;;4.67;2.43;;;14.50;90.10;;;;;;4984015;28;20673;-90
2022/05/20 00:37:45;;;;;;;3.33;2.57;;;14.50;90.80;;;;;;5014513;28;20433;-91
2022/05/20 00:40:14;;;;;;;4.10;2.33;;;14.50;90.50;;;;;;4992126;28;20532;-90
2022/05/20 00:42:40;;;;;;;4.40;2.23;;;14.40;90.30;;;;;;4988372;28;20200;-91
2022/05/20 00:45:08;;;;;;;2.33;2.13;;;14.40;90.50;;;;;;4988137;28;20472;-91
2022/05/20 00:47:33;;;;;;;2.00;1.80;;;14.40;90.60;;;;;;4987379;28;20524;-91
2022/05/20 00:50:04;;;;;;;1.80;1.70;;;14.30;90.60;;;;;;4980736;28;21017;-91
2022/05/20 00:52:32;;;;;;;1.97;1.80;;;14.30;90.70;;;;;;4996758;28;20202;-91
2022/05/20 00:55:02;;;;;;;4.77;1.57;;;14.20;91.00;;;;;;4997697;28;20556;-91
2022/05/20 00:57:33;;;;;;;2.27;1.60;;;14.20;91.10;;;;;;4980958;28;20444;-91
2022/05/20 01:00:09;;;;;;;3.70;2.30;;;14.10;91.00;;;;;;4980189;28;20496;-91
2022/05/20 01:02:36;;;;;;;2.50;1.77;;;14.10;91.20;;;;;;4997091;28;20895;-91
2022/05/20 01:05:04;;;;;;;2.70;1.53;;;14.00;91.60;;;;;;4980281;28;20540;-91
2022/05/20 01:07:35;;;;;;;3.30;2.20;;;14.00;91.60;;;;;;4979684;28;20485;-91
2022/05/20 01:10:00;;;;;;;2.97;2.20;;;13.90;91.60;;;;;;4998230;28;20179;-91
2022/05/20 01:12:28;;;;;;;3.27;2.40;;;13.80;91.60;;;;;;4997877;28;20192;-91
2022/05/20 01:14:54;;;;;;;3.57;1.87;;;13.80;91.60;;;;;;4997640;28;20179;-91
2022/05/20 01:17:21;;;;;;;4.27;2.40;;;13.70;91.80;;;;;;4980436;28;20460;-91
2022/05/20 01:19:50;;;;;;;2.33;2.07;;;13.70;91.70;;;;;;4998760;28;20422;-91
2022/05/20 01:22:28;;;;;;;2.70;1.93;;;13.70;92.70;;;;;;4981765;28;20437;-90
2022/05/20 01:24:53;;;;;;;2.97;1.85;;;13.70;93.20;;;;;;4981539;28;20425;-91
2022/05/20 01:27:19;;;;;;;4.77;2.43;;;13.60;93.10;;;;;;4993264;28;20219;-90
2022/05/20 01:29:45;;;;;;;3.57;2.57;;;13.60;92.30;;;;;;4999888;28;20234;-91
2022/05/20 01:32:10;;;;;;;2.23;1.97;;;13.60;93.10;;;;;;5000429;28;20195;-90
2022/05/20 01:34:36;;;;;;;1.63;1.53;;;13.60;92.50;;;;;;5008489;28;20210;-91
2022/05/20 01:37:02;;;;;;;3.10;2.00;;;13.60;92.40;;;;;;5007928;28;20286;-91
2022/05/20 01:39:27;;;;;;;1.60;1.50;;;13.50;92.70;;;;;;5019144;28;20180;-92
2022/05/20 01:42:04;;;;;;;3.93;1.90;;;13.50;92.60;;;;;;4998169;28;20195;-91
2022/05/20 01:44:49;;;;;;;2.33;2.00;;;13.50;92.60;;;;;;4998733;28;20201;-92
2022/05/20 01:47:33;;;;;;;3.43;2.20;;;13.40;93.00;;;;;;5015901;28;20468;-91
2022/05/20 01:50:09;;;;;;;3.63;2.20;;;13.40;93.10;;;;;;4998220;28;20445;-92
2022/05/20 01:52:56;;;;;;;3.22;2.15;;;13.40;93.00;;;;;;4998514;28;20444;-91
2022/05/20 01:55:33;;;;;;;6.38;1.92;;;13.30;93.00;;;;;;4998090;28;20187;-91
2022/05/20 01:58:41;;;;;;;2.80;1.90;;;13.30;92.90;;;;;;5016128;28;20226;-91
2022/05/20 02:01:12;;;;;;;2.10;1.85;;;13.20;93.00;;;;;;4998502;28;20187;-91
2022/05/20 02:03:46;;;;;;;3.15;1.85;;;13.10;93.30;;;;;;5017291;28;20662;-91
2022/05/20 02:06:24;;;;;;;3.60;1.80;;;13.10;93.40;;;;;;4998457;28;20719;-91
2022/05/20 02:09:00;;;;;;;5.93;2.20;;;13.00;93.60;;;;;;5000429;28;20179;-91
2022/05/20 02:11:36;;;;;;;2.47;1.40;;;13.00;93.80;;;;;;4999311;28;20171;-91
2022/05/20 02:14:19;;;;;;;1.90;1.60;;;13.00;94.00;;;;;;5015900;28;20183;-92
2022/05/20 02:16:56;;;;;;;3.20;1.90;;;12.90;94.10;;;;;;4997841;28;20779;-91
2022/05/20 02:19:36;;;;;;;2.28;2.08;;;13.00;94.00;;;;;;4998561;28;20183;-91
2022/05/20 02:22:07;;;;;;;5.40;1.60;;;13.00;94.00;;;;;;4999428;28;20195;-91
2022/05/20 02:24:34;;;;;;;3.75;1.73;;;13.00;94.10;;;;;;5017128;28;20183;-90
2022/05/20 02:27:04;;;;;;;1.55;1.40;;;13.00;94.10;;;;;;4988125;28;20239;-92
2022/05/20 02:29:40;;;;;;;2.13;1.70;;;13.00;94.30;;;;;;4996352;28;20171;-92
2022/05/20 02:32:13;;;;;;;7.88;2.08;;;13.00;94.40;;;;;;4995876;28;20191;-91
2022/05/20 02:34:38;;;;;;;2.90;2.03;;;12.90;94.20;;;;;;4996048;28;20179;-92
2022/05/20 02:37:29;;;;;;;3.37;2.07;;;12.90;94.20;;;;;;4979359;28;20203;-91
2022/05/20 02:39:56;;;;;;;2.38;2.15;;;12.90;94.20;;;;;;4979476;28;20603;-91
2022/05/20 02:42:22;;;;;;;2.78;2.10;;;12.90;94.10;;;;;;4995804;28;20191;-91
2022/05/20 02:44:49;;;;;;;3.22;2.75;;;12.90;94.10;;;;;;4978568;28;20183;-90
2022/05/20 02:47:14;;;;;;;2.40;2.20;;;12.90;94.10;;;;;;4996398;28;20212;-91
2022/05/20 02:49:40;;;;;;;6.23;2.63;;;12.90;94.10;;;;;;4996802;28;20654;-90
2022/05/20 02:52:07;;;;;;;2.53;2.00;;;12.90;94.20;;;;;;5005838;28;20428;-91
2022/05/20 02:54:33;;;;;;;3.20;2.10;;;12.90;94.10;;;;;;4991497;28;20426;-91
2022/05/20 02:56:58;;;;;;;6.70;2.67;;;12.80;94.20;;;;;;4991674;28;20262;-91
2022/05/20 03:04:53;;;;;;;3.67;2.70;;;12.70;95.70;;;;;;4999513;28;20235;-92
2022/05/20 03:07:18;;;;;;;3.27;2.43;;;12.60;95.30;;;;;;4981471;28;20247;-91
2022/05/20 03:09:44;;;;;;;3.77;2.13;;;12.50;95.20;;;;;;4999269;28;20184;-92
2022/05/20 03:12:13;;;;;;;3.40;2.60;;;12.50;95.10;;;;;;4981697;28;20204;-91
2022/05/20 03:14:39;;;;;;;4.70;2.30;;;12.40;95.20;;;;;;4981778;28;20484;-91
2022/05/20 03:17:06;;;;;;;2.80;2.38;;;12.30;95.40;;;;;;4981526;28;20287;-90
2022/05/20 03:19:33;;;;;;;4.60;2.55;;;12.20;95.90;;;;;;4982188;28;20547;-91
2022/05/20 03:22:01;;;;;;;3.20;2.45;;;12.10;96.50;;;;;;4982489;28;20235;-91
2022/05/20 03:24:27;;;;;;;5.05;2.85;;;12.00;96.60;;;;;;4983176;28;20649;-91
2022/05/20 03:26:54;;;;;;;12.35;3.55;;;12.00;97.10;;;;;;5000309;28;20221;-91
2022/05/20 03:29:20;;;;;;;4.22;3.08;;;12.00;97.00;;;;;;4982996;28;20184;-92
2022/05/20 03:31:47;;;;;;;4.45;2.40;;;12.00;97.00;;;;;;4982979;28;20206;-91
2022/05/20 03:34:14;;;;;;;3.35;2.63;;;11.90;97.00;;;;;;4999711;28;20187;-91
2022/05/20 03:36:42;;;;;;;5.45;3.03;;;11.90;97.20;;;;;;5001709;28;20195;-92
2022/05/20 03:39:10;;;;;;;8.30;3.30;;;11.90;98.10;;;;;;5001271;28;20187;-92
2022/05/20 03:41:37;;;;;;;4.50;2.50;;;11.90;97.20;;;;;;4998926;28;20180;-91
2022/05/20 03:44:04;;;;;;;4.50;3.08;;;11.90;97.00;;;;;;4983533;28;20203;-91
2022/05/20 03:46:31;;;;;;;8.75;2.83;;;11.80;97.10;;;;;;4997987;28;20303;-91
2022/05/20 03:48:58;;;;;;;4.63;3.22;;;11.80;97.20;;;;;;4981325;28;20180;-90
2022/05/20 03:51:24;;;;;;;4.68;2.92;;;11.70;97.40;;;;;;4998172;28;20255;-91
2022/05/20 03:53:50;;;;;;;5.00;3.33;;;11.70;97.70;;;;;;4998101;28;20215;-91
2022/05/20 03:56:16;;;;;;;5.30;3.20;;;11.60;97.80;;;;;;4980970;28;20418;-93
2022/05/20 03:58:41;;;;;;;3.50;2.43;;;11.60;98.00;;;;;;4999313;28;20176;-91
2022/05/20 04:03:56;;;;;;;6.22;3.08;;;11.60;98.50;;;;;;4999175;28;20997;-91
2022/05/20 04:06:22;;;;;;;6.18;3.65;;;11.60;98.70;;;;;;4981535;28;20748;-91
2022/05/20 04:08:48;;;;;;;4.27;3.37;;;11.60;98.80;;;;;;4981995;28;20271;-91
2022/05/20 04:11:14;;;;;;;3.85;3.47;;;11.50;98.90;;;;;;4984218;28;20452;-91
2022/05/20 04:13:42;;;;;;;6.10;3.20;;;11.50;99.10;;;;;;4985889;28;20673;-91
2022/05/20 04:16:10;;;;;;;4.93;3.45;;;11.50;99.20;;;;;;4984569;28;20920;-91
2022/05/20 04:18:37;;;;;;;4.70;3.50;;;11.50;99.30;;;;;;5006623;28;20214;-90
2022/05/20 04:21:04;;;;;;;5.43;4.28;;;11.60;99.60;;;;;;5007967;28;20192;-91
2022/05/20 04:23:31;;;;;;;5.43;3.20;;;11.60;99.80;;;;;;5006159;28;20207;-89
2022/05/20 04:25:57;;;;;;;4.68;3.38;;;11.70;99.90;;;;;;4986279;28;20211;-90
2022/05/20 04:28:22;;;;;;;6.57;4.00;;;11.80;99.90;;;;;;5019018;28;20191;-90
2022/05/20 04:30:56;;;;;;;5.43;3.97;;;11.90;99.90;;;;;;5019550;28;20412;-91
2022/05/20 04:33:21;;;;;;;5.25;3.50;;;12.00;99.90;;;;;;5001856;28;20211;-92
2022/05/20 04:35:47;;;;;;;8.20;4.67;;;12.10;99.90;;;;;;5002829;28;20221;-90
2022/05/20 04:38:13;;;;;;;7.00;4.65;;;12.20;99.90;;;;;;5018779;28;20449;-91
2022/05/20 04:40:39;;;;;;;6.50;5.23;;;12.20;99.80;;;;;;5002931;28;20185;-91
2022/05/20 04:48:34;;;;;;;5.40;3.80;;;12.40;99.90;;;;;;5019080;28;20783;-92
2022/05/20 04:51:00;;;;;;;5.47;4.50;;;12.40;99.90;;;;;;5018075;28;20539;-91
2022/05/20 04:56:11;;;;;;;5.55;4.07;;;12.60;99.90;;;;;;5005883;28;20238;-92
2022/05/20 04:58:37;;;;;;;6.40;4.07;;;12.80;99.90;;;;;;5001414;28;20207;-92
2022/05/20 05:01:04;;;;;;;8.98;5.40;;;12.90;99.80;;;;;;5000710;28;20313;-92
2022/05/20 05:03:29;;;;;;;7.47;4.60;;;13.00;99.70;;;;;;5029308;28;20187;-92
2022/05/20 05:05:56;;;;;;;13.33;5.90;;;13.10;99.60;;;;;;5002837;28;20222;-90
2022/05/20 05:08:21;;;;;;;5.05;4.35;;;13.20;99.60;;;;;;5015302;28;20663;-92
2022/05/20 05:10:49;;;;;;;5.93;5.30;;;13.40;99.90;;;;;;4999128;28;20222;-91
2022/05/20 05:13:15;;;;;;;7.13;4.37;;;13.50;99.60;;;;;;5015068;28;20711;-92
2022/05/20 05:15:45;;;;;;;6.10;4.77;;;13.70;99.30;;;;;;4995239;28;20870;-93
2022/05/20 05:18:12;;;;;;;7.45;4.50;;;13.80;99.10;;;;;;4997626;28;20457;-92
2022/05/20 05:20:52;;;;;;;8.47;4.87;;;14.00;99.20;;;;;;4996081;28;20183;-91
2022/05/20 05:23:19;;;;;;;12.00;5.40;;;14.10;99.20;;;;;;4991896;28;20877;-92
2022/05/20 05:25:48;;;;;;;8.93;4.83;;;14.30;99.50;;;;;;4995126;28;20425;-92
2022/05/20 05:28:14;;;;;;;11.53;5.60;;;14.40;99.40;;;;;;4977180;28;20470;-92
2022/05/20 05:30:42;;;;;;;8.10;5.43;;;14.60;98.90;;;;;;4978402;28;20414;-91
2022/05/20 05:33:08;;;;;;;6.57;4.80;;;14.80;98.70;;;;;;4992875;28;20453;-92
2022/05/20 05:35:34;;;;;;;10.80;5.93;;;14.90;98.90;;;;;;4995649;28;20413;-91
2022/05/20 05:38:00;;;;;;;8.70;5.57;;;15.10;98.70;;;;;;5000534;28;20468;-92
2022/05/20 05:40:30;;;;;;;17.20;6.67;;;15.20;98.40;;;;;;4997370;28;20410;-90
2022/05/20 05:42:59;;;;;;;9.93;6.13;;;15.40;98.40;;;;;;4995361;28;20433;-93
2022/05/20 05:45:27;;;;;;;9.50;6.57;;;15.50;98.30;;;;;;4985178;28;20429;-91
2022/05/20 05:47:59;;;;;;;9.13;6.43;;;15.60;98.00;;;;;;4995355;28;20476;-92
2022/05/20 05:50:25;;;;;;;13.33;7.00;;;15.70;97.90;;;;;;4992334;28;20418;-92
2022/05/20 05:53:09;;;;;;;9.63;5.23;;;15.90;97.40;;;;;;4992495;28;20447;-92
2022/05/20 05:55:35;;;;;;;12.20;7.03;;;16.00;97.80;;;;;;4991968;28;20500;-92
2022/05/20 05:58:02;;;;;;;7.13;5.43;;;16.10;97.90;;;;;;4997061;28;20422;-92
2022/05/20 06:00:27;;;;;;;9.83;5.90;;;16.20;97.00;;;;;;4994997;28;20418;-92
2022/05/20 06:02:53;;;;;;;11.77;6.20;;;16.30;97.10;;;;;;4995613;28;20487;-92
2022/05/20 06:05:20;;;;;;;7.97;5.57;;;16.40;97.10;;;;;;4986913;28;20440;-91
2022/05/20 06:07:46;;;;;;;9.63;7.10;;;16.50;96.70;;;;;;4994062;28;20469;-92
2022/05/20 06:10:12;;;;;;;9.03;6.10;;;16.60;96.40;;;;;;4994606;28;20787;-91
2022/05/20 06:12:38;;;;;;;11.27;7.07;;;16.70;96.60;;;;;;5012961;28;20441;-91
2022/05/20 06:15:16;;;;;;;8.90;6.20;;;16.80;96.40;;;;;;4995200;28;20449;-92
2022/05/20 06:17:43;;;;;;;8.57;5.23;;;17.00;95.90;;;;;;5008585;28;20468;-93
2022/05/20 06:20:10;;;;;;;10.80;5.80;;;17.00;95.90;;;;;;5014105;28;20415;-93
2022/05/20 06:22:36;;;;;;;9.43;6.10;;;17.20;96.10;;;;;;4996193;28;20207;-91
2022/05/20 06:25:03;;;;;;;7.90;6.03;;;17.30;95.80;;;;;;5015907;28;20416;-92
2022/05/20 06:27:29;;;;;;;7.20;5.73;;;17.40;95.60;;;;;;5009611;28;20481;-92
2022/05/20 06:29:54;;;;;;;9.17;5.60;;;17.60;95.40;;;;;;4993328;28;20884;-91
2022/05/20 06:32:20;;;;;;;6.13;5.20;;;17.70;95.20;;;;;;4995446;28;20215;-92
2022/05/20 06:40:18;;;;;;;12.40;6.43;;;18.00;94.60;;;;;;5013806;28;20440;-92
2022/05/20 06:42:44;;;;;;;7.30;5.00;;;18.20;94.00;;;;;;4991660;28;20441;-92
2022/05/20 06:45:12;;;;;;;9.00;5.07;;;18.30;94.10;;;;;;4983242;28;20429;-91
2022/05/20 06:47:39;;;;;;;6.97;5.07;;;18.40;94.20;;;;;;4995792;28;20471;-92
2022/05/20 06:50:06;;;;;;;11.63;6.13;;;18.60;93.80;;;;;;5015269;28;20421;-93
2022/05/20 06:52:32;;;;;;;7.30;5.20;;;18.70;93.80;;;;;;5015336;28;20428;-92
2022/05/20 06:54:58;;;;;;;6.43;5.10;;;18.90;93.50;;;;;;4996142;28;20412;-93
2022/05/20 06:57:27;;;;;;;8.97;5.10;;;19.00;93.00;;;;;;5005418;28;20934;-92
2022/05/20 06:59:54;;;;;;;9.40;5.70;;;19.10;92.00;;;;;;4986492;28;20443;-92
2022/05/20 07:02:20;;;;;;;9.33;5.80;;;19.30;92.40;;;;;;5010170;28;20540;-92
2022/05/20 07:04:46;;;;;;;5.53;4.70;;;19.40;92.10;;;;;;4991428;28;20448;-92
2022/05/20 07:07:12;;;;;;;6.47;4.93;;;19.50;91.10;;;;;;4993395;28;20487;-92
2022/05/20 07:09:37;;;;;;;6.90;4.50;;;19.70;90.80;;;;;;4994035;28;20185;-92
2022/05/20 07:12:04;;;;;;;7.10;4.93;;;19.80;90.60;;;;;;4982748;28;20440;-91
2022/05/20 07:14:30;;;;;;;7.23;5.03;;;20.00;89.80;;;;;;4983368;28;20213;-93
2022/05/20 07:16:56;;;;;;;6.50;4.23;;;20.10;89.30;;;;;;4994715;28;20491;-91
2022/05/20 07:19:23;;;;;;;5.33;4.67;;;20.20;87.90;;;;;;5015734;28;20445;-93
2022/05/20 07:21:48;;;;;;;6.77;4.60;;;20.40;87.10;;;;;;4997291;28;20467;-93
2022/05/20 07:24:14;;;;;;;6.93;4.70;;;20.50;86.00;;;;;;5015268;28;20443;-93
2022/05/20 07:26:40;;;;;;;6.67;4.73;;;20.70;86.10;;;;;;4996465;28;20222;-92
2022/05/20 07:29:08;;;;;;;9.63;5.53;;;20.80;85.40;;;;;;4994985;28;20439;-92
2022/05/20 07:31:35;;;;;;;7.50;4.27;;;20.90;86.20;;;;;;5012498;28;20432;-93
2022/05/20 07:34:01;;;;;;;9.93;5.30;;;21.10;85.30;;;;;;5011508;28;20447;-92
2022/05/20 07:36:27;;;;;;;8.53;4.60;;;21.20;84.10;;;;;;4991489;28;20432;-93
2022/05/20 07:38:53;;;;;;;6.63;4.00;;;21.30;83.00;;;;;;5003915;28;20510;-91
2022/05/20 07:41:22;;;;;;;7.70;4.60;;;21.50;82.50;;;;;;4997460;28;20476;-92
2022/05/20 07:43:48;;;;;;;6.53;4.57;;;21.60;80.80;;;;;;4996344;28;20443;-92
2022/05/20 07:46:13;;;;;;;6.00;4.00;;;21.70;80.60;;;;;;5003787;28;20533;-92
2022/05/20 07:48:40;;;;;;;6.60;3.30;;;21.80;80.00;;;;;;4998248;28;20286;-92
2022/05/20 07:51:10;;;;;;;3.83;2.77;;;21.90;79.30;;;;;;4996694;28;20195;-93
2022/05/20 07:53:54;;;;;;;8.30;3.40;;;22.10;77.50;;;;;;4997720;28;20510;-94
2022/05/20 07:56:49;;;;;;;6.73;3.57;;;22.20;77.30;;;;;;5001506;28;20429;-93
2022/05/20 07:59:24;;;;;;;4.20;2.90;;;22.30;76.10;;;;;;4984714;28;20499;-91
2022/05/20 08:01:51;;;;;;;4.70;3.37;;;22.40;74.50;;;;;;4996991;28;20494;-93
2022/05/20 08:07:05;;;;;;;5.50;3.40;;;22.70;71.70;;;;;;5010770;28;20506;-93
2022/05/20 08:09:31;;;;;;;4.30;2.80;;;22.80;69.50;;;;;;4996633;28;20432;-93
2022/05/20 08:11:58;;;;;;;4.67;2.83;;;23.00;68.70;;;;;;4992148;28;20543;-92
2022/05/20 08:14:26;;;;;;;5.50;2.60;;;23.10;69.50;;;;;;4995117;28;20222;-92
2022/05/20 08:16:52;;;;;;;3.03;2.20;;;23.20;67.60;;;;;;4995848;28;20487;-92
2022/05/20 08:19:18;;;;;;;4.40;2.70;;;23.30;64.80;;;;;;5014752;28;21114;-93
2022/05/20 08:21:43;;;;;;;1.63;1.47;;;23.40;65.10;;;;;;4997519;28;20454;-92
2022/05/20 08:24:09;;;;;;;3.00;2.10;;;23.50;63.40;;;;;;5013622;28;20437;-92
2022/05/20 08:26:35;;;;;;;5.33;2.87;;;23.60;64.00;;;;;;5019768;28;20203;-93
2022/05/20 08:29:03;;;;;;;2.07;1.70;;;23.80;63.30;;;;;;5000393;28;20188;-92
2022/05/20 08:31:28;;;;;;;5.10;3.53;;;23.90;61.70;;;;;;4996285;28;20433;-93
2022/05/20 08:33:55;;;;;;;5.10;3.43;;;24.00;62.30;;;;;;5009627;28;20468;-92
2022/05/20 08:36:21;;;;;;;3.90;2.63;;;24.10;61.60;;;;;;4998835;28;20538;-93
2022/05/20 08:38:47;;;;;;;4.37;2.30;;;24.20;63.30;;;;;;4999129;28;20755;-92
2022/05/20 08:41:32;;;;;;;5.90;2.23;;;24.30;60.60;;;;;;5014710;28;20435;-93
2022/05/20 08:43:59;;;;;;;2.30;1.67;;;24.40;61.10;;;;;;4998515;28;20451;-92
2022/05/20 08:46:25;;;;;;;2.90;2.50;;;24.40;61.00;;;;;;4997854;28;20471;-93
2022/05/20 08:48:53;;;;;;;4.40;2.30;;;24.60;61.60;;;;;;5016624;28;20436;-92
2022/05/20 08:51:21;;;;;;;3.40;2.03;;;24.60;61.50;;;;;;5002128;28;20461;-93
2022/05/20 08:53:48;;;;;;;2.37;1.73;;;24.70;61.00;;;;;;5010058;28;20495;-92
2022/05/20 08:56:19;;;;;;;3.27;2.40;;;24.70;60.40;;;;;;5003171;28;20438;-91
2022/05/20 08:59:00;;;;;;;3.00;1.53;;;24.90;60.20;;;;;;4994253;28;20828;-91
2022/05/20 09:01:41;;;;;;;3.50;1.97;;;25.00;59.90;;;;;;4994769;28;20470;-93
2022/05/20 09:04:11;;;;;;;2.67;2.00;;;25.10;59.60;;;;;;4996415;28;20474;-92
2022/05/20 09:07:02;;;;;;;2.07;1.93;;;25.20;57.40;;;;;;4992702;28;20528;-92
2022/05/20 09:09:41;;;;;;;2.40;2.20;;;25.30;57.10;;;;;;4994809;28;20502;-92
2022/05/20 09:12:10;;;;;;;2.43;2.23;;;25.30;57.80;;;;;;4997115;28;20605;-93
2022/05/20 09:17:40;;;;;;;6.40;2.40;;;25.50;57.00;;;;;;4997803;28;20874;-92
2022/05/20 09:20:07;;;;;;;2.50;2.30;;;25.60;56.00;;;;;;4992430;28;20812;-93
2022/05/20 09:22:37;;;;;;;3.00;2.60;;;25.60;54.70;;;;;;4999444;28;20982;-93
2022/05/20 09:25:27;;;;;;;3.03;2.33;;;25.60;54.80;;;;;;5011173;28;20444;-93
2022/05/20 09:28:13;;;;;;;2.80;2.30;;;25.70;55.40;;;;;;4994146;28;20589;-93
2022/05/20 09:30:41;;;;;;;5.40;3.20;;;25.80;56.00;;;;;;4993801;28;20475;-93
2022/05/20 09:33:15;;;;;;;3.03;2.40;;;25.90;55.70;;;;;;5005987;28;20580;-93
2022/05/20 09:35:46;;;;;;;3.13;2.30;;;25.90;57.30;;;;;;4992906;28;20953;-93
2022/05/20 09:38:37;;;;;;;3.13;2.30;;;26.00;55.10;;;;;;5010019;28;20590;-92
2022/05/20 09:41:15;;;;;;;3.10;2.60;;;26.00;54.90;;;;;;5013183;28;20533;-92
2022/05/20 09:43:44;;;;;;;3.20;2.60;;;26.10;55.10;;;;;;4997190;28;20534;-93
2022/05/20 09:46:30;;;;;;;6.77;3.30;;;26.20;55.30;;;;;;4991684;28;20856;-93
2022/05/20 09:49:13;;;;;;;5.10;2.80;;;26.30;55.50;;;;;;5008309;28;20444;-93
2022/05/20 09:51:46;;;;;;;3.70;2.97;;;26.30;55.30;;;;;;5010665;28;20451;-92
2022/05/20 09:54:23;;;;;;;8.30;3.47;;;26.20;55.70;;;;;;5012528;28;20464;-91
2022/05/20 09:57:13;;;;;;;5.23;2.57;;;26.20;56.20;;;;;;4988503;28;20452;-93
2022/05/20 10:00:05;;;;;;;2.70;2.50;;;26.30;55.40;;;;;;4993979;28;20448;-92
2022/05/20 10:02:55;;;;;;;2.97;2.53;;;26.30;56.80;;;;;;4997001;28;20980;-93
2022/05/20 10:05:52;;;;;;;3.87;2.87;;;26.40;56.40;;;;;;4982914;28;20455;-93
2022/05/20 10:08:27;;;;;;;2.97;2.40;;;26.50;56.70;;;;;;5009524;28;20827;-92
2022/05/20 10:11:03;;;;;;;2.83;2.50;;;26.60;55.40;;;;;;4992048;28;20440;-93
2022/05/20 10:14:01;;;;;;;2.27;2.07;;;26.60;56.10;;;;;;4995509;28;20861;-93
2022/05/20 10:16:58;;;;;;;4.60;2.27;;;26.70;56.10;;;;;;4990698;28;20456;-92
2022/05/20 10:19:52;;;;;;;2.13;1.93;;;26.80;56.60;;;;;;4977738;28;20982;-92
2022/05/20 10:22:39;;;;;;;2.60;2.40;;;26.80;56.10;;;;;;4998099;28;20444;-92
2022/05/20 10:25:24;;;;;;;3.83;3.00;;;26.80;56.80;;;;;;4999735;28;20432;-92
2022/05/20 10:27:53;;;;;;;4.30;2.63;;;26.90;57.10;;;;;;4992091;28;20740;-93
2022/05/20 10:33:12;;;;;;;2.80;2.30;;;27.00;56.40;;;;;;4992087;28;21082;-92
2022/05/20 10:36:14;;;;;;;3.17;2.87;;;27.00;56.90;;;;;;4991168;28;20409;-92
2022/05/20 10:39:08;;;;;;;2.67;2.47;;;27.10;56.90;;;;;;4992928;28;20475;-92
2022/05/20 10:42:16;;;;;;;2.03;1.93;;;27.10;57.00;;;;;;5011435;28;20506;-92
2022/05/20 10:51:04;;;;;;;4.53;2.53;;;27.30;57.90;;;;;;5016042;28;20480;-93
2022/05/20 10:53:45;;;;;;;2.50;2.30;;;27.30;57.40;;;;;;4977308;28;20454;-92
2022/05/20 10:56:16;;;;;;;3.30;2.40;;;27.40;58.50;;;;;;5011716;28;20503;-93
2022/05/20 10:59:21;;;;;;;3.13;2.83;;;27.40;57.90;;;;;;4996135;28;20410;-92
2022/05/20 11:02:24;;;;;;;2.80;2.60;;;27.50;57.80;;;;;;4999592;28;20460;-93
2022/05/20 11:05:11;;;;;;;1.80;1.70;;;27.60;58.10;;;;;;4968582;28;20726;-92
2022/05/20 11:07:54;;;;;;;2.37;2.20;;;27.60;58.00;;;;;;4990829;28;20868;-92
2022/05/20 11:10:38;;;;;;;3.20;2.40;;;27.70;58.40;;;;;;5010530;28;20776;-91
2022/05/20 11:13:10;;;;;;;3.13;2.83;;;27.80;58.10;;;;;;4990792;28;20464;-91
2022/05/20 11:16:17;;;;;;;4.43;2.50;;;27.80;58.60;;;;;;4983729;28;20543;-92
2022/05/20 11:18:55;;;;;;;3.87;2.30;;;27.90;58.80;;;;;;5005502;28;21075;-92
2022/05/20 11:21:51;;;;;;;3.07;2.77;;;27.90;58.40;;;;;;4998374;28;20467;-93
2022/05/20 11:24:35;;;;;;;2.43;2.03;;;28.00;58.60;;;;;;5012492;28;20452;-94
2022/05/20 11:27:03;;;;;;;5.00;2.47;;;28.10;58.60;;;;;;5010358;28;21018;-92
2022/05/20 11:29:50;;;;;;;2.03;1.90;;;28.20;58.50;;;;;;4995107;28;20532;-90
2022/05/20 11:32:36;;;;;;;2.30;1.83;;;28.20;57.90;;;;;;5007929;28;20475;-93
2022/05/20 11:35:25;;;;;;;3.53;2.60;;;28.20;57.80;;;;;;5012206;28;20418;-92
2022/05/20 11:38:08;;;;;;;3.13;2.20;;;28.30;58.40;;;;;;4996770;28;20526;-92
2022/05/20 11:40:43;;;;;;;2.03;1.83;;;28.30;58.60;;;;;;4994479;28;20433;-92
2022/05/20 11:43:38;;;;;;;2.37;2.17;;;28.40;58.50;;;;;;4993139;28;20478;-93
2022/05/20 11:46:07;;;;;;;2.20;2.00;;;28.40;58.00;;;;;;4991102;28;20479;-90
2022/05/20 11:48:46;;;;;;;2.13;1.90;;;28.40;58.00;;;;;;4991475;28;20581;-92
2022/05/20 11:51:39;;;;;;;2.30;2.10;;;28.40;58.40;;;;;;4992632;28;20454;-92
2022/05/20 11:54:26;;;;;;;2.63;2.43;;;28.50;58.10;;;;;;5017861;28;20505;-92
2022/05/20 11:57:07;;;;;;;2.30;2.10;;;28.60;57.50;;;;;;4989699;28;20478;-92
2022/05/20 11:59:48;;;;;;;2.80;2.40;;;28.60;57.40;;;;;;4993917;28;20452;-93
2022/05/20 12:02:16;;;;;;;2.73;2.20;;;28.70;58.40;;;;;;4991809;28;20541;-92
2022/05/20 12:04:44;;;;;;;2.10;1.90;;;28.70;58.40;;;;;;4995232;28;20522;-93
2022/05/20 12:07:23;;;;;;;3.00;2.20;;;28.70;57.60;;;;;;4993170;28;20522;-92
2022/05/20 12:09:54;;;;;;;2.20;1.90;;;28.80;58.00;;;;;;5013784;28;20479;-93
2022/05/20 12:12:31;;;;;;;2.50;2.13;;;28.80;58.00;;;;;;4998415;28;20451;-92
2022/05/20 12:15:04;;;;;;;1.70;1.60;;;28.80;57.20;;;;;;4999998;28;20444;-92
2022/05/20 12:17:36;;;;;;;2.67;2.47;;;28.80;57.00;;;;;;5011714;28;20455;-92
2022/05/20 12:26:11;;;;;;;2.40;2.10;;;28.90;58.40;;;;;;5012999;28;20431;-92
2022/05/20 12:28:41;;;;;;;2.33;2.13;;;28.90;57.80;;;;;;4976501;28;20451;-93
2022/05/20 12:31:29;;;;;;;2.17;2.07;;;28.90;57.30;;;;;;4990047;28;20535;-92
2022/05/20 12:34:00;;;;;;;4.50;2.27;;;28.90;58.10;;;;;;4990045;28;20430;-93
2022/05/20 12:36:28;;;;;;;1.97;1.80;;;28.90;57.60;;;;;;4995871;28;20453;-93
2022/05/20 12:39:10;;;;;;;1.90;1.80;;;29.00;57.40;;;;;;4998346;28;20428;-92
2022/05/20 12:41:43;;;;;;;1.83;1.73;;;29.00;57.80;;;;;;4996001;28;20468;-92
2022/05/20 12:44:18;;;;;;;2.57;2.37;;;29.00;57.20;;;;;;5002745;28;20448;-92
2022/05/20 12:47:01;;;;;;;1.80;1.70;;;29.10;57.20;;;;;;5014318;28;20530;-93
2022/05/20 12:49:34;;;;;;;1.73;1.63;;;29.10;57.40;;;;;;4999432;28;20409;-91
2022/05/20 12:52:17;;;;;;;2.43;2.23;;;29.20;57.40;;;;;;4997232;28;20466;-92
2022/05/20 12:54:45;;;;;;;3.00;2.10;;;29.20;57.40;;;;;;5014574;28;20506;-93
2022/05/20 12:57:21;;;;;;;2.07;1.80;;;29.30;56.80;;;;;;5015996;28;20465;-92
2022/05/20 12:59:56;;;;;;;2.00;1.80;;;29.30;57.00;;;;;;5005807;28;20451;-93
2022/05/20 13:02:28;;;;;;;2.00;1.80;;;29.40;56.70;;;;;;4993418;28;20441;-92
2022/05/20 13:04:59;;;;;;;2.37;1.93;;;29.40;56.50;;;;;;4996204;28;20419;-92
2022/05/20 13:07:25;;;;;;;2.20;1.70;;;29.40;57.50;;;;;;5005870;28;20508;-92
2022/05/20 13:09:51;;;;;;;2.83;2.50;;;29.40;56.70;;;;;;4987733;28;20500;-93
2022/05/20 13:12:20;;;;;;;1.97;1.87;;;29.50;56.50;;;;;;4992812;28;20459;-94
2022/05/20 13:14:57;;;;;;;2.30;2.10;;;29.50;56.60;;;;;;4996189;28;20193;-92
2022/05/20 13:17:23;;;;;;;1.80;1.60;;;29.50;56.70;;;;;;4992151;28;21178;-93
2022/05/20 13:19:55;;;;;;;2.30;2.10;;;29.50;56.90;;;;;;4984094;28;20564;-93
2022/05/20 13:22:25;;;;;;;2.03;1.83;;;29.50;56.90;;;;;;4991152;28;20491;-93
2022/05/20 13:25:00;;;;;;;6.60;1.90;;;29.50;55.80;;;;;;4994485;28;20412;-93
2022/05/20 13:27:27;;;;;;;1.83;1.67;;;29.60;56.10;;;;;;4993536;28;20872;-93
2022/05/20 13:30:09;;;;;;;1.90;1.40;;;29.60;56.40;;;;;;4993536;28;20428;-93
2022/05/20 13:32:35;;;;;;;2.00;1.80;;;29.60;56.30;;;;;;4992865;28;20460;-93
2022/05/20 13:35:05;;;;;;;1.70;1.60;;;29.60;56.00;;;;;;4987741;28;20424;-93
2022/05/20 13:37:39;;;;;;;2.10;1.90;;;29.60;56.20;;;;;;4996104;28;20661;-92
2022/05/20 13:40:33;;;;;;;2.80;1.63;;;29.60;56.00;;;;;;4997054;28;20445;-92
2022/05/20 13:43:00;;;;;;;2.07;1.83;;;29.60;55.90;;;;;;4993076;28;20445;-92
2022/05/20 13:51:15;;;;;;;3.13;2.00;;;29.70;56.10;;;;;;4985305;28;20504;-93
2022/05/20 13:53:41;;;;;;;2.27;1.93;;;29.70;55.70;;;;;;4995242;28;20417;-92
2022/05/20 13:56:12;;;;;;;1.93;1.80;;;29.70;55.80;;;;;;4994092;28;20442;-92
2022/05/20 13:58:42;;;;;;;1.70;1.60;;;29.80;55.30;;;;;;4988793;28;20783;-92
2022/05/20 14:01:11;;;;;;;1.90;1.80;;;29.80;55.30;;;;;;4983696;28;20943;-93